createdAt,value
2018-05-14T00:02:07.284Z,26.77
2018-05-14T00:04:41.803Z,27.10
2018-05-14T00:07:16.929Z,27.83
2018-05-14T00:09:51.906Z,25.47
2018-05-14T00:12:26.907Z,26.00
2018-05-14T00:15:01.332Z,26.47
2018-05-14T00:17:36.249Z,25.70
2018-05-14T00:20:11.472Z,24.23
2018-05-14T00:22:46.965Z,26.30
2018-05-14T00:25:21.898Z,23.23
2018-05-14T00:27:57.255Z,24.30
2018-05-14T00:30:32.257Z,27.23
2018-05-14T00:33:07.398Z,26.60
2018-05-14T00:35:42.926Z,27.30
2018-05-14T00:38:17.878Z,26.15
2018-05-14T00:40:52.965Z,26.23
2018-05-14T00:43:27.816Z,26.93
2018-05-14T00:46:03.082Z,27.83
2018-05-14T00:48:38.003Z,27.77
2018-05-14T00:51:13.242Z,26.30
2018-05-14T00:53:47.958Z,25.50
2018-05-14T00:56:22.862Z,25.10
2018-05-14T00:58:57.953Z,25.30
2018-05-14T01:01:32.869Z,26.70
2018-05-14T01:04:08.121Z,24.67
2018-05-14T01:06:42.771Z,27.53
2018-05-14T01:09:18.095Z,27.02
2018-05-14T01:11:52.941Z,25.83
2018-05-14T01:14:27.969Z,24.50
2018-05-14T01:17:02.995Z,22.57
2018-05-14T01:19:37.956Z,21.60
2018-05-14T01:22:13.174Z,21.42
2018-05-14T01:24:57.031Z,22.07
2018-05-14T01:27:31.638Z,23.10
2018-05-14T01:30:07.067Z,23.65
2018-05-14T01:32:41.955Z,23.23
2018-05-14T01:35:17.461Z,21.90
2018-05-14T01:37:52.460Z,23.00
2018-05-14T01:40:27.467Z,23.77
2018-05-14T01:43:03.093Z,22.23
2018-05-14T01:45:38.137Z,20.03
2018-05-14T01:48:13.301Z,19.92
2018-05-14T01:50:48.624Z,19.93
2018-05-14T01:53:23.708Z,22.83
2018-05-14T01:55:57.773Z,23.23
2018-05-14T01:58:32.175Z,21.87
2018-05-14T02:01:07.257Z,20.90
2018-05-14T02:03:42.091Z,20.77
2018-05-14T02:06:16.910Z,22.27
2018-05-14T02:08:51.393Z,21.77
2018-05-14T02:11:26.011Z,22.30
2018-05-14T02:14:01.603Z,21.00
2018-05-14T02:16:37.005Z,22.00
2018-05-14T02:19:11.696Z,23.50
2018-05-14T02:21:47.226Z,22.97
2018-05-14T02:24:22.242Z,25.47
2018-05-14T02:26:56.891Z,30.20
2018-05-14T02:29:31.418Z,30.20
2018-05-14T02:32:06.362Z,35.73
2018-05-14T02:34:42.109Z,37.03
2018-05-14T02:37:17.317Z,33.50
2018-05-14T02:39:52.261Z,29.83
2018-05-14T02:42:27.262Z,22.67
2018-05-14T02:45:02.173Z,22.52
2018-05-14T02:47:37.630Z,18.03
2018-05-14T02:50:12.394Z,16.20
2018-05-14T02:52:47.495Z,17.50
2018-05-14T02:55:23.090Z,18.37
2018-05-14T02:57:58.189Z,18.20
2018-05-14T03:00:33.067Z,18.30
2018-05-14T03:03:08.303Z,17.65
2018-05-14T03:05:43.395Z,19.03
2018-05-14T03:08:19.105Z,17.05
2018-05-14T03:10:54.073Z,16.33
2018-05-14T03:13:29.289Z,16.77
2018-05-14T03:16:04.352Z,17.33
2018-05-14T03:18:39.285Z,16.87
2018-05-14T03:21:14.458Z,16.63
2018-05-14T03:23:49.391Z,17.17
2018-05-14T03:26:24.038Z,16.80
2018-05-14T03:28:58.670Z,17.50
2018-05-14T03:31:33.781Z,15.03
2018-05-14T03:34:08.807Z,15.77
2018-05-14T03:36:43.406Z,13.90
2018-05-14T03:39:18.584Z,14.07
2018-05-14T03:41:54.221Z,15.02
2018-05-14T03:44:29.166Z,14.75
2018-05-14T03:47:03.806Z,14.83
2018-05-14T03:49:38.940Z,15.37
2018-05-14T03:52:13.591Z,13.97
2018-05-14T03:54:48.606Z,15.20
2018-05-14T03:57:23.513Z,14.83
2018-05-14T04:00:09.825Z,15.87
2018-05-14T04:05:56.606Z,15.20
2018-05-14T04:08:31.783Z,15.10
2018-05-14T04:11:06.922Z,14.97
2018-05-14T04:13:42.468Z,14.10
2018-05-14T04:16:17.473Z,14.60
2018-05-14T04:18:52.008Z,14.50
2018-05-14T04:21:27.395Z,14.95
2018-05-14T04:24:02.420Z,14.53
2018-05-14T04:26:37.286Z,14.60
2018-05-14T04:29:12.535Z,15.17
2018-05-14T04:31:47.617Z,15.33
2018-05-14T04:34:23.178Z,15.90
2018-05-14T04:36:58.670Z,16.63
2018-05-14T04:39:33.630Z,16.53
2018-05-14T04:42:08.797Z,14.20
2018-05-14T04:44:43.646Z,16.63
2018-05-14T04:47:18.778Z,13.07
2018-05-14T04:49:53.706Z,13.67
2018-05-14T04:52:28.841Z,13.67
2018-05-14T04:55:03.982Z,13.97
2018-05-14T04:57:39.014Z,13.00
2018-05-14T05:00:14.420Z,12.18
2018-05-14T05:02:49.573Z,12.87
2018-05-14T05:05:24.354Z,13.40
2018-05-14T05:07:59.813Z,11.40
2018-05-14T05:10:35.167Z,12.10
2018-05-14T05:13:10.534Z,12.07
2018-05-14T05:15:45.568Z,12.50
2018-05-14T05:18:20.573Z,11.97
2018-05-14T05:20:55.764Z,13.13
2018-05-14T05:23:30.773Z,12.30
2018-05-14T05:26:05.887Z,11.10
2018-05-14T05:28:40.822Z,10.40
2018-05-14T05:31:16.022Z,11.00
2018-05-14T05:33:50.969Z,10.07
2018-05-14T05:36:26.054Z,10.40
2018-05-14T05:39:02.106Z,10.27
2018-05-14T05:41:37.116Z,9.93
2018-05-14T05:44:12.683Z,10.27
2018-05-14T05:46:48.270Z,10.13
2018-05-14T05:49:23.805Z,9.40
2018-05-14T05:51:58.800Z,10.20
2018-05-14T05:54:33.816Z,9.80
2018-05-14T05:57:09.127Z,9.77
2018-05-14T05:59:43.991Z,10.17
2018-05-14T06:02:19.421Z,11.10
2018-05-14T06:04:54.218Z,10.47
2018-05-14T06:07:29.521Z,9.35
2018-05-14T06:10:04.790Z,10.40
2018-05-14T06:12:39.820Z,10.87
2018-05-14T06:15:14.587Z,9.25
2018-05-14T06:17:49.800Z,8.83
2018-05-14T06:20:24.742Z,8.80
2018-05-14T06:22:59.769Z,9.55
2018-05-14T06:25:34.741Z,10.70
2018-05-14T06:28:09.713Z,9.67
2018-05-14T06:30:45.022Z,9.07
2018-05-14T06:33:20.306Z,9.70
2018-05-14T06:35:55.717Z,7.28
2018-05-14T06:38:32.297Z,9.70
2018-05-14T06:41:07.029Z,9.73
2018-05-14T06:43:41.837Z,10.00
2018-05-14T06:46:17.159Z,8.73
2018-05-14T06:48:52.406Z,8.80
2018-05-14T06:51:27.769Z,9.77
2018-05-14T06:54:02.877Z,9.38
2018-05-14T06:56:37.890Z,9.15
2018-05-14T06:59:12.866Z,9.75
2018-05-14T07:01:47.921Z,9.10
2018-05-14T07:04:22.969Z,9.43
2018-05-14T07:06:57.920Z,9.80
2018-05-14T07:09:32.845Z,9.23
2018-05-14T07:12:08.150Z,10.10
2018-05-14T07:14:43.299Z,9.83
2018-05-14T07:17:18.522Z,9.57
2018-05-14T07:19:53.873Z,8.60
2018-05-14T07:22:29.015Z,9.73
2018-05-14T07:25:03.846Z,9.90
2018-05-14T07:27:38.469Z,9.93
2018-05-14T07:30:14.197Z,9.60
2018-05-14T07:32:49.445Z,10.07
2018-05-14T07:35:24.971Z,9.30
2018-05-14T07:38:00.292Z,10.37
2018-05-14T07:40:35.922Z,11.20
2018-05-14T07:43:11.000Z,9.60
2018-05-14T07:45:45.965Z,9.93
2018-05-14T07:48:20.920Z,9.77
2018-05-14T07:50:56.178Z,9.57
2018-05-14T07:53:31.126Z,10.40
2018-05-14T07:56:06.238Z,10.03
2018-05-14T07:58:41.082Z,10.50
2018-05-14T08:01:16.269Z,10.00
2018-05-14T08:03:51.194Z,10.20
2018-05-14T08:06:26.345Z,10.60
2018-05-14T08:09:02.179Z,9.35
2018-05-14T08:11:37.278Z,10.00
2018-05-14T08:14:12.122Z,11.17
2018-05-14T08:16:47.205Z,10.73
2018-05-14T08:19:22.686Z,11.60
2018-05-14T08:21:57.186Z,11.10
2018-05-14T08:24:32.111Z,11.63
2018-05-14T08:27:07.018Z,10.70
2018-05-14T08:29:42.263Z,10.53
2018-05-14T08:32:17.020Z,10.27
2018-05-14T08:34:52.188Z,10.20
2018-05-14T08:37:27.154Z,9.23
2018-05-14T08:40:02.540Z,11.10
2018-05-14T08:42:37.335Z,10.70
2018-05-14T08:45:12.618Z,10.38
2018-05-14T08:47:47.554Z,10.50
2018-05-14T08:50:22.587Z,11.17
2018-05-14T08:52:57.969Z,10.20
2018-05-14T08:55:32.935Z,10.43
2018-05-14T08:58:07.741Z,9.80
2018-05-14T09:00:42.848Z,9.20
2018-05-14T09:03:18.401Z,8.30
2018-05-14T09:05:53.280Z,8.80
2018-05-14T09:08:28.306Z,9.83
2018-05-14T09:11:03.736Z,9.10
2018-05-14T09:13:38.251Z,8.90
2018-05-14T09:16:13.400Z,9.13
2018-05-14T09:18:48.278Z,8.13
2018-05-14T09:21:23.334Z,8.20
2018-05-14T09:23:58.318Z,8.43
2018-05-14T09:26:33.250Z,7.80
2018-05-14T09:29:08.532Z,7.40
2018-05-14T09:31:43.425Z,7.57
2018-05-14T09:34:18.405Z,7.97
2018-05-14T09:36:53.334Z,7.80
2018-05-14T09:39:28.473Z,7.00
2018-05-14T09:42:03.381Z,6.80
2018-05-14T09:44:38.398Z,7.50
2018-05-14T09:47:12.544Z,7.25
2018-05-14T09:49:47.062Z,7.20
2018-05-14T09:52:21.772Z,6.63
2018-05-14T09:54:57.353Z,6.80
2018-05-14T09:57:32.418Z,7.60
2018-05-14T10:00:07.046Z,5.80
2018-05-14T10:02:42.224Z,5.70
2018-05-14T10:05:17.076Z,6.10
2018-05-14T10:07:52.451Z,6.40
2018-05-14T10:10:27.481Z,6.50
2018-05-14T10:13:02.860Z,6.60
2018-05-14T10:15:37.547Z,6.47
2018-05-14T10:18:12.770Z,6.30
2018-05-14T10:20:47.823Z,5.53
2018-05-14T10:23:22.590Z,6.00
2018-05-14T10:25:57.674Z,6.40
2018-05-14T10:28:32.490Z,5.73
2018-05-14T10:31:07.425Z,5.70
2018-05-14T10:33:42.374Z,5.57
2018-05-14T10:36:17.431Z,5.70
2018-05-14T10:38:52.456Z,6.37
2018-05-14T10:41:27.389Z,6.10
2018-05-14T10:44:02.858Z,5.40
2018-05-14T10:46:37.644Z,6.13
2018-05-14T10:49:13.195Z,6.00
2018-05-14T10:51:47.712Z,5.40
2018-05-14T10:54:23.171Z,5.33
2018-05-14T10:56:58.604Z,5.70
2018-05-14T10:59:33.501Z,5.17
2018-05-14T11:02:08.786Z,5.10
2018-05-14T11:04:43.704Z,4.87
2018-05-14T11:07:18.934Z,4.67
2018-05-14T11:09:54.473Z,4.30
2018-05-14T11:12:29.467Z,4.23
2018-05-14T11:15:04.526Z,4.43
2018-05-14T11:17:39.594Z,3.53
2018-05-14T11:20:15.090Z,3.87
2018-05-14T11:22:49.772Z,4.13
2018-05-14T11:25:24.902Z,4.80
2018-05-14T11:28:00.021Z,3.60
2018-05-14T11:30:34.853Z,4.40
2018-05-14T11:33:09.824Z,4.00
2018-05-14T11:35:44.590Z,4.27
2018-05-14T11:38:19.790Z,4.25
2018-05-14T11:40:54.732Z,3.97
2018-05-14T11:43:29.760Z,4.17
2018-05-14T11:46:04.491Z,4.13
2018-05-14T11:48:39.555Z,3.50
2018-05-14T11:51:14.529Z,3.80
2018-05-14T11:53:49.601Z,3.73
2018-05-14T11:56:25.386Z,4.10
2018-05-14T11:59:00.749Z,3.50
2018-05-14T12:01:35.840Z,2.97
2018-05-14T12:04:10.943Z,3.63
2018-05-14T12:06:45.602Z,3.77
2018-05-14T12:09:20.626Z,4.45
2018-05-14T12:11:55.178Z,4.33
2018-05-14T12:14:30.101Z,3.67
2018-05-14T12:17:04.693Z,3.40
2018-05-14T12:19:39.769Z,3.80
2018-05-14T12:22:15.034Z,4.10
2018-05-14T12:24:49.921Z,3.30
2018-05-14T12:27:25.075Z,4.57
2018-05-14T12:30:00.258Z,3.87
2018-05-14T12:32:35.666Z,3.90
2018-05-14T12:35:10.473Z,4.83
2018-05-14T12:37:45.138Z,4.70
2018-05-14T12:40:20.110Z,4.13
2018-05-14T12:42:55.134Z,4.43
2018-05-14T12:45:30.080Z,4.40
2018-05-14T12:48:04.954Z,3.60
2018-05-14T12:50:40.094Z,4.90
2018-05-14T12:53:15.038Z,4.47
2018-05-14T12:55:49.953Z,4.40
2018-05-14T12:58:24.842Z,4.50
2018-05-14T13:00:59.850Z,4.87
2018-05-14T13:03:34.838Z,4.57
2018-05-14T13:06:10.082Z,4.30
2018-05-14T13:08:44.742Z,4.90
2018-05-14T13:11:19.022Z,4.50
2018-05-14T13:13:54.395Z,4.33
2018-05-14T13:16:29.914Z,4.20
2018-05-14T13:19:04.373Z,4.50
2018-05-14T13:21:39.544Z,4.90
2018-05-14T13:24:14.381Z,4.20
2018-05-14T13:26:49.398Z,4.27
2018-05-14T13:29:24.351Z,4.17
2018-05-14T13:31:59.025Z,4.30
2018-05-14T13:34:33.918Z,3.93
2018-05-14T13:37:09.017Z,3.83
2018-05-14T13:39:43.901Z,4.33
2018-05-14T13:42:19.053Z,4.25
2018-05-14T13:44:53.899Z,4.37
2018-05-14T13:47:28.845Z,3.87
2018-05-14T13:50:03.371Z,4.70
2018-05-14T13:52:38.272Z,4.50
2018-05-14T13:55:12.738Z,4.07
2018-05-14T13:57:48.074Z,4.13
2018-05-14T14:00:22.931Z,3.90
2018-05-14T14:02:57.934Z,4.33
2018-05-14T14:05:32.587Z,4.03
2018-05-14T14:08:07.346Z,4.30
2018-05-14T14:10:42.254Z,4.37
2018-05-14T14:13:17.410Z,4.13
2018-05-14T14:15:52.195Z,4.30
2018-05-14T14:18:27.096Z,4.70
2018-05-14T14:21:03.346Z,5.35
2018-05-14T14:23:39.159Z,5.00
2018-05-14T14:26:14.163Z,4.60
2018-05-14T14:28:48.681Z,4.97
2018-05-14T14:31:24.036Z,4.95
2018-05-14T14:33:59.043Z,5.10
2018-05-14T14:36:33.611Z,5.70
2018-05-14T14:39:08.091Z,5.40
2018-05-14T14:41:43.390Z,5.00
2018-05-14T14:44:18.801Z,5.40
2018-05-14T14:46:53.418Z,5.57
2018-05-14T14:49:28.117Z,5.87
2018-05-14T14:52:03.456Z,5.70
2018-05-14T14:54:38.241Z,6.00
2018-05-14T14:57:13.278Z,5.20
2018-05-14T14:59:48.109Z,6.07
2018-05-14T15:02:23.121Z,6.03
2018-05-14T15:04:57.849Z,4.87
2018-05-14T15:07:33.162Z,5.30
2018-05-14T15:10:08.094Z,4.40
2018-05-14T15:12:43.240Z,5.23
2018-05-14T15:15:18.270Z,4.72
2018-05-14T15:17:53.286Z,5.13
2018-05-14T15:20:28.098Z,5.60
2018-05-14T15:23:03.522Z,6.00
2018-05-14T15:25:38.551Z,5.43
2018-05-14T15:28:13.816Z,5.95
2018-05-14T15:30:48.762Z,4.40
2018-05-14T15:33:24.214Z,5.20
2018-05-14T15:35:58.729Z,4.87
2018-05-14T15:38:33.720Z,5.67
2018-05-14T15:41:08.661Z,5.80
2018-05-14T15:43:43.796Z,5.50
2018-05-14T15:46:19.308Z,5.40
2018-05-14T15:48:54.309Z,5.40
2018-05-14T15:51:28.825Z,5.50
2018-05-14T15:54:03.707Z,5.20
2018-05-14T15:56:38.739Z,4.77
2018-05-14T15:59:14.396Z,4.95
2018-05-14T16:01:49.374Z,5.17
2018-05-14T16:04:24.416Z,4.57
2018-05-14T16:06:59.427Z,5.23
2018-05-14T16:09:34.357Z,5.37
2018-05-14T16:12:09.499Z,5.53
2018-05-14T16:14:44.344Z,5.13
2018-05-14T16:17:19.667Z,4.70
2018-05-14T16:19:54.344Z,5.27
2018-05-14T16:22:29.489Z,5.50
2018-05-14T16:25:04.030Z,4.77
2018-05-14T16:27:38.967Z,4.73
2018-05-14T16:30:13.368Z,5.05
2018-05-14T16:32:48.794Z,5.30
2018-05-14T16:35:23.610Z,4.63
2018-05-14T16:37:58.546Z,5.37
2018-05-14T16:40:33.358Z,4.43
2018-05-14T16:43:08.643Z,4.87
2018-05-14T16:45:43.946Z,5.10
2018-05-14T16:48:19.432Z,5.20
2018-05-14T16:50:54.615Z,5.37
2018-05-14T16:53:29.620Z,4.97
2018-05-14T16:56:04.133Z,4.97
2018-05-14T16:58:39.439Z,4.57
2018-05-14T17:01:14.729Z,5.28
2018-05-14T17:03:49.687Z,5.20
2018-05-14T17:06:24.638Z,4.67
2018-05-14T17:08:59.492Z,5.37
2018-05-14T17:11:34.616Z,5.43
2018-05-14T17:14:09.698Z,5.30
2018-05-14T17:16:44.344Z,5.30
2018-05-14T17:19:19.491Z,4.63
2018-05-14T17:21:54.453Z,4.80
2018-05-14T17:24:28.863Z,4.87
2018-05-14T17:27:03.855Z,5.00
2018-05-14T17:29:39.208Z,4.80
2018-05-14T17:32:14.619Z,5.63
2018-05-14T17:34:49.509Z,5.53
2018-05-14T17:37:24.487Z,5.30
2018-05-14T17:39:59.004Z,5.03
2018-05-14T17:42:33.711Z,5.23
2018-05-14T17:45:09.115Z,5.90
2018-05-14T17:47:43.903Z,6.10
2018-05-14T17:50:19.130Z,5.25
2018-05-14T17:52:54.040Z,5.53
2018-05-14T17:55:29.589Z,5.50
2018-05-14T17:58:04.928Z,5.20
2018-05-14T18:00:40.606Z,5.03
2018-05-14T18:03:15.510Z,5.30
2018-05-14T18:05:50.570Z,5.27
2018-05-14T18:08:25.709Z,5.80
2018-05-14T18:11:00.821Z,5.30
2018-05-14T18:13:35.674Z,6.00
2018-05-14T18:16:10.895Z,5.53
2018-05-14T18:18:45.809Z,5.03
2018-05-14T18:21:25.989Z,5.17
2018-05-14T18:24:00.665Z,5.30
2018-05-14T18:26:40.955Z,5.20
2018-05-14T18:29:22.043Z,5.82
2018-05-14T18:31:56.589Z,5.30
2018-05-14T18:34:36.387Z,5.50
2018-05-14T18:37:11.657Z,6.53
2018-05-14T18:39:46.599Z,5.73
2018-05-14T18:42:21.878Z,5.30
2018-05-14T18:47:54.665Z,5.80
2018-05-14T18:50:29.489Z,6.00
2018-05-14T18:53:04.802Z,5.83
2018-05-14T18:55:39.257Z,5.73
2018-05-14T18:58:13.902Z,5.20
2018-05-14T19:00:48.729Z,5.70
2018-05-14T19:03:23.290Z,5.33
2018-05-14T19:05:58.587Z,5.53
2018-05-14T19:08:33.591Z,5.40
2018-05-14T19:11:14.226Z,5.50
2018-05-14T19:13:49.870Z,5.47
2018-05-14T19:16:29.886Z,5.27
2018-05-14T19:19:04.720Z,5.20
2018-05-14T19:21:39.714Z,5.30
2018-05-14T19:24:15.062Z,5.80
2018-05-14T19:26:49.881Z,5.60
2018-05-14T19:29:30.234Z,5.50
2018-05-14T19:32:04.791Z,5.10
2018-05-14T19:34:45.322Z,5.60
2018-05-14T19:37:19.958Z,5.70
2018-05-14T19:40:00.734Z,5.20
2018-05-14T19:42:35.771Z,4.90
2018-05-14T19:45:10.815Z,5.03
2018-05-14T19:47:45.355Z,4.90
2018-05-14T19:50:20.595Z,5.03
2018-05-14T19:52:55.209Z,4.63
2018-05-14T19:55:29.955Z,5.80
2018-05-14T19:58:04.342Z,4.90
2018-05-14T20:00:39.112Z,4.90
2018-05-14T20:03:14.246Z,4.95
2018-05-14T20:05:49.182Z,5.20
2018-05-14T20:08:23.938Z,6.43
2018-05-14T20:10:58.958Z,5.90
2018-05-14T20:13:33.961Z,5.63
2018-05-14T20:16:09.019Z,5.68
2018-05-14T20:18:44.990Z,5.80
2018-05-14T20:21:20.422Z,4.73
2018-05-14T20:23:55.242Z,5.00
2018-05-14T20:26:29.942Z,5.87
2018-05-14T20:29:05.276Z,4.83
2018-05-14T20:31:40.018Z,5.47
2018-05-14T20:34:14.854Z,5.53
2018-05-14T20:36:49.514Z,14.20
2018-05-14T20:39:24.446Z,13.07
2018-05-14T20:41:59.534Z,5.10
2018-05-14T20:44:34.974Z,7.67
2018-05-14T20:47:10.133Z,5.65
2018-05-14T20:49:44.970Z,5.40
2018-05-14T20:52:20.009Z,4.82
2018-05-14T20:54:54.978Z,5.47
2018-05-14T20:57:30.561Z,5.37
2018-05-14T21:00:05.623Z,5.17
2018-05-14T21:02:41.041Z,4.97
2018-05-14T21:05:16.301Z,5.25
2018-05-14T21:07:56.760Z,5.03
2018-05-14T21:10:31.634Z,4.83
2018-05-14T21:13:06.914Z,5.10
2018-05-14T21:15:42.063Z,5.07
2018-05-14T21:18:16.934Z,4.60
2018-05-14T21:20:52.041Z,5.10
2018-05-14T21:23:27.042Z,5.30
2018-05-14T21:26:02.271Z,5.20
2018-05-14T21:28:37.209Z,5.10
2018-05-14T21:31:11.988Z,4.50
2018-05-14T21:33:47.028Z,5.23
2018-05-14T21:36:22.404Z,5.57
2018-05-14T21:38:57.097Z,4.87
2018-05-14T21:41:32.086Z,5.10
2018-05-14T21:44:07.387Z,4.80
2018-05-14T21:46:42.239Z,4.87
2018-05-14T21:49:17.189Z,5.05
2018-05-14T21:51:52.227Z,5.37
2018-05-14T21:54:26.794Z,4.87
2018-05-14T21:57:01.626Z,4.60
2018-05-14T21:59:36.592Z,5.27
2018-05-14T22:02:12.353Z,5.50
2018-05-14T22:04:47.710Z,4.90
2018-05-14T22:07:22.703Z,4.90
2018-05-14T22:09:57.584Z,4.70
2018-05-14T22:12:32.479Z,4.97
2018-05-14T22:15:07.213Z,4.37
2018-05-14T22:17:42.363Z,5.20
2018-05-14T22:20:17.390Z,5.50
2018-05-14T22:22:52.289Z,4.50
2018-05-14T22:25:27.299Z,4.93
2018-05-14T22:28:02.290Z,5.30
2018-05-14T22:30:37.294Z,4.60
2018-05-14T22:33:12.434Z,5.07
2018-05-14T22:35:47.403Z,5.20
2018-05-14T22:38:22.537Z,4.73
2018-05-14T22:40:57.682Z,4.97
2018-05-14T22:43:32.518Z,4.70
2018-05-14T22:46:07.613Z,4.73
2018-05-14T22:48:42.318Z,5.00
2018-05-14T22:51:17.312Z,5.22
2018-05-14T22:53:52.329Z,4.73
2018-05-14T22:56:27.389Z,5.20
2018-05-14T22:59:02.418Z,5.13
2018-05-14T23:01:37.454Z,5.00
2018-05-14T23:04:12.570Z,4.90
2018-05-14T23:06:47.630Z,4.70
2018-05-14T23:09:22.563Z,5.00
2018-05-14T23:11:57.490Z,5.13
2018-05-14T23:14:32.842Z,5.53
2018-05-14T23:17:08.167Z,4.93
2018-05-14T23:19:42.825Z,5.67
2018-05-14T23:22:17.910Z,4.67
2018-05-14T23:24:53.393Z,5.20
2018-05-14T23:27:28.397Z,5.37
2018-05-14T23:30:04.181Z,5.15
2018-05-14T23:32:38.910Z,5.13
2018-05-14T23:35:13.905Z,6.13
2018-05-14T23:37:48.524Z,5.00
2018-05-14T23:40:23.613Z,5.17
2018-05-14T23:42:58.433Z,5.67
2018-05-14T23:45:33.422Z,5.30
2018-05-14T23:48:08.030Z,5.50
2018-05-14T23:50:42.822Z,5.53
2018-05-14T23:53:18.148Z,5.17
2018-05-14T23:55:53.491Z,5.18
2018-05-14T23:58:28.610Z,5.00
